Elkins-Randolph Co-Jennings Randolph Field
KEKN : now visible

Airfield :











YOU CAN JOIN US ON...

 
LOGIN :

Register | Disclaimer

   EN    FR    IT 

 









Legend :    VFR   Marginal VFR   IFR   Intensive IFR   Very Intensive IFR
Visi :
Ceiling :
>= 8 km
>= 3000ft
5 to 8 km
1000 to 3000 ft
1500m to 5 km
500 to 1000 ft
800 to 1500m
200 to 500 ft
< 800m
< 200 ft
Symbols :   Thunderstorms  Fog  Heavy snow  Heavy precipitations  Wind > 20 kt






- Airport Elevation : 1987 ft


KEKN - Elkins-Randolph Co-Jennings Randolph Field

CURRENT METAR :
  • 240551Z AUTO 24018G28KT 10SM -RA SCT055 BKN070 OVC080 14/03 A2996 RMK AO2 PK WND 25029/0535 RAB50 SLP140 P0000 60000 T01440028 10183 20144 53010

EXPIRED METARs :
  • 240451Z AUTO 28008KT 10SM OVC085 15/01 A2994 RMK AO2 SLP136 T01500006 402221011
  • 240351Z AUTO 28015G22KT 10SM OVC100 17/M03 A2993 RMK AO2 SLP132 T01721033
  • 240251Z AUTO 23004KT 10SM OVC100 17/M03 A2992 RMK AO2 SLP130 T01671028 51010
  • 240151Z AUTO 25004KT 10SM OVC110 17/M04 A2991 RMK AO2 SLP131 T01721044

TAF KEKN
Valid from the 24 at 06:00 until the 25 at 06:00 UTC


240520Z 2406/2506 14005KT P6SM -RA OVC045
FM240800 22005KT 6SM -RA BR OVC026
FM241100 28008KT P6SM OVC013
FM241400 28007KT P6SM OVC020
FM242000 30010G17KT P6SM BKN030
KZDC FIR / North America



MET'MAP, your aeronautical weather chart ! - Copyright ORBIFLY December 2007 - Disclaimer

ORBIFLY MET'MAP TEAM :

Programming & Development : Alexandra Zaïnal
Original concept : Baudouin d'Aumeries
Technical & hardware support : Manuel Goepfert
Assistance : Marc-Olivier Méhu




SOURCES & CREDITS :

   NOAA       Earth
Advisory